This is the latest recevied weather packets stored in our database for station/object W5MAI. If no packets are shown the sender has not sent any weather packets the latest 10 day(s).
| Time | Temp. | Humidity | Pressure | Rain* | Wind** | Luminosity | Snow |
|---|---|---|---|---|---|---|---|
| 1777862056 | 16.67° C | 70% | 1019.2 hPa | 0 mm | - | 0 W/m² | - |
| 1777861460 | 17.22° C | 69% | 1019.1 hPa | 0 mm | - | 0 W/m² | - |
| 1777859036 | 19.44° C | 58% | 1018.8 hPa | 0 mm | - | 0 W/m² | - |
| 1777858462 | 20.56° C | 54% | 1018.7 hPa | 0 mm | - | 0 W/m² | - |
| 1777857825 | 21.11° C | 52% | 1018.7 hPa | 0 mm | - | 0 W/m² | - |
| 1777857255 | 21.67° C | 49% | 1018.6 hPa | 0 mm | - | 0 W/m² | - |
| 1777856663 | 22.22° C | 47% | 1018.5 hPa | 0 mm | - | 7 W/m² | - |
| 1777855419 | 22.78° C | 43% | 1018.4 hPa | 0 mm | - | 25 W/m² | - |
| 1777854847 | 23.33° C | 42% | 1018.4 hPa | 0 mm | - | 30 W/m² | - |
| 1777854203 | 23.89° C | 42% | 1018.7 hPa | 0 mm | - | 51 W/m² | - |
| 1777853024 | 23.89° C | 43% | 1018.8 hPa | 0 mm | - | 193 W/m² | - |
| 1777852454 | 24.44° C | 43% | 1019.1 hPa | 0 mm | - | 60 W/m² | - |
| 1777851810 | 24.44° C | 41% | 1019 hPa | 0 mm | - | 246 W/m² | - |
| 1777851245 | 24.44° C | 43% | 1019.1 hPa | 0 mm | - | 341 W/m² | - |
| 1777850656 | 24.44° C | 42% | 1019.2 hPa | 0 mm | - | 90 W/m² | - |
| 1777850018 | 25° C | 41% | 1019 hPa | 0 mm | - | 355 W/m² | - |
| 1777849443 | 25° C | 42% | 1019.2 hPa | 0 mm | - | 345 W/m² | - |
| 1777848810 | 25° C | 40% | 1019 hPa | 0 mm | - | 381 W/m² | - |
| 1777848238 | 25° C | 43% | 1019.2 hPa | 0 mm | - | 441 W/m² | - |
| 1777847661 | 25° C | 42% | 1019.2 hPa | 0 mm | - | 475 W/m² | - |
| 1777847028 | 25° C | 40% | 1019.4 hPa | 0 mm | - | 513 W/m² | - |
| 1777846447 | 25° C | 40% | 1019.5 hPa | 0 mm | - | 596 W/m² | - |
| 1777845814 | 25° C | 40% | 1019.6 hPa | 0 mm | - | 380 W/m² | - |
| 1777845229 | 25° C | 41% | 1019.8 hPa | 0 mm | - | 677 W/m² | - |
| 1777844656 | 25° C | 38% | 1020.2 hPa | 0 mm | - | 636 W/m² | - |
* Rain latest hour (hover to see other rain measurements)
** Current wind speed in m/s (hover to see current wind gust speed)